DIRECCIÓN GENERAL DE AERONÁUTICA CIVIL
DIRECCIÓN METEOROLÓGICA DE CHILE
INFORMACIÓN METAR Y TAF

FIR SANTIAGO

Estación: SCSE
METAR SCSE 251200Z 09004KT 9999 FEW012 OVC017 17/15 Q1015=

TAF SCSE 251048Z 2512/2612 29004KT 9999 OVC010 TX21/2519Z TN15/2610Z BECMG 2514/2516 BKN014 BECMG 2516/2518 29010KT SCT020 BECMG 2520/2522 CAVOK BECMG 2601/2603 15004KT BECMG 2603/2605 VRB02KT BKN014 TEMPO 2608/2612 OVC010=

Estación: SCER
NIL=

NIL=

Estación: SCRD
METAR SCRD 251200Z 32005KT 0300 FG VV000 13/13 Q1014=

TAF SCRD 251040Z 2512/2524 VRB02KT CAVOK TX22/2519Z TN13/2512Z TEMPO 2512/2515 6000 FEW008 BECMG 2518/2520 32012KT=

Estación: SCVM
METAR SCVM 251200Z 33010KT 9999 4000S HZ SCT008 15/14 Q1014=

TAF SCVM 251049Z 2512/2612 00000KT 9999 SCT012 TX21/2519Z TN13/2610Z TEMPO 2512/2514 15005KT 3000 BR BKN008 BECMG 2515/2517 26008KT CAVOK BECMG 2601/2603 23004KT BECMG 2605/2607 00000KT SCT014 BECMG 2610/ 2612 BKN012=

Estación: SCTB
METAR SCTB 251200Z 00000KT CAVOK 18/14 Q1015=

TAF SCTB 251040Z 2512/2524 VRB02KT CAVOK TX31/2518Z TN15/2512Z BECMG 2515/2517 22008KT TEMPO 2518/2522 FEW050=

Estación: SCEL
METAR SCEL 251200Z VRB02KT 8000 SKC 19/11 Q1014 NOSIG=

TAF SCEL 251049Z 2512/2612 15005KT CAVOK TX31/2519Z TN14/2610Z BECMG 2514/2516 20012KT BECMG 2601/2603 18008KT BECMG 2604/2606 15004KT=

Estación: SCSN
METAR SCSN 251200Z VRB01KT 0600 FG BKN001 OVC005 14/14 Q1014=

TAF SCSN 251040Z 2512/2524 VRB02KT 2000 BR OVC005 TX21/2519Z TN13/ 2512Z TEMPO 2512/2514 0500 FG OVC002 BECMG 2516/2518 28010KT 9999 SCT010 BECMG 2518/2520 CAVOK=

Estación: SCRG
METAR SCRG 231600Z 18009KT CAVOK 26/13 Q1014=

TAF SCRG 231030Z 2312/2324 18006KT CAVOK TX30/2319Z TN14/2312Z BECMG 2315/2316 19012KT=

Estación: SCIC
METAR SCIC 251200Z 00000KT CAVOK 20/12 Q1012=

TAF SCIC 251045Z 2512/2524 18005KT CAVOK TX32/2520Z TN17/2512Z BECMG 2516/2518 20012KT=

Estación: SCCH
METAR SCCH 251200Z 21004KT CAVOK 18/12 Q1013=

TAF SCCH 251045Z 2512/2524 20005KT CAVOK TX32/2520Z TN15/2512Z BECMG 2518/2520 20012KT=

Estación: SCIE
METAR SCIE 251200Z 21007KT 9999 OVC008 17/15 Q1013=

TAF SCIE 251050Z 2512/2612 23005KT 9999 OVC010 TX22/2518Z TN13/2610Z BECMG 2515/2517 23012KT SCT015 BECMG 2518/2520 CAVOK BECMG 2601/2603 22006KT TEMPO 2608/2612 BKN012=

Estación: SCGE
METAR SCGE 251200Z 00000KT CAVOK 16/14 Q1013=

TAF SCGE 251045Z 2512/2524 18005KT CAVOK TX32/2520Z TN14/2512Z BECMG 2515/2517 19012KT=


Volver